createdAt,value
2016-10-21T00:00:45.822Z,11.1
2016-10-21T00:01:46.159Z,10.99
2016-10-21T00:02:46.178Z,11.11
2016-10-21T00:03:46.189Z,11.04
2016-10-21T00:04:45.894Z,11.05
2016-10-21T00:05:46.229Z,11.14
2016-10-21T00:06:46.244Z,11.12
2016-10-21T00:07:46.580Z,11.08
2016-10-21T00:08:46.600Z,11.11
2016-10-21T00:09:46.630Z,11.11
2016-10-21T00:10:46.321Z,11
2016-10-21T00:11:46.024Z,11.05
2016-10-21T00:12:46.358Z,11.07
2016-10-21T00:13:46.375Z,10.97
2016-10-21T00:14:46.405Z,11.14
2016-10-21T00:15:46.724Z,11.07
2016-10-21T00:16:46.115Z,11.07
2016-10-21T00:17:46.443Z,11.11
2016-10-21T00:18:46.819Z,11.12
2016-10-21T00:19:46.165Z,11.12
2016-10-21T00:20:46.501Z,11.14
2016-10-21T00:21:46.518Z,11.22
2016-10-21T00:22:46.229Z,11.18
2016-10-21T00:23:46.557Z,11.17
2016-10-21T00:24:46.572Z,11.12
2016-10-21T00:25:46.593Z,11.11
2016-10-21T00:26:46.622Z,11.11
2016-10-21T00:27:46.631Z,11.11
2016-10-21T00:28:46.651Z,11.12
2016-10-21T00:29:46.671Z,11.11
2016-10-21T00:30:46.369Z,11.05
2016-10-21T00:31:46.706Z,11.05
2016-10-21T00:32:46.725Z,11
2016-10-21T00:33:46.744Z,11
2016-10-21T00:34:46.757Z,11.11
2016-10-21T00:35:46.461Z,10.96
2016-10-21T00:36:46.483Z,11.04
2016-10-21T00:37:46.855Z,11.11
2016-10-21T00:38:46.512Z,11.04
2016-10-21T00:39:46.848Z,11.11
2016-10-21T00:40:46.551Z,11.1
2016-10-21T00:41:47.204Z,11.11
2016-10-21T00:42:46.905Z,11.02
2016-10-21T00:43:47.254Z,11.05
2016-10-21T00:44:47.262Z,11.12
2016-10-21T00:45:46.647Z,11.12
2016-10-21T00:46:46.663Z,11
2016-10-21T00:47:46.692Z,11.05
2016-10-21T00:48:47.019Z,11.08
2016-10-21T00:49:46.717Z,11.05
2016-10-21T00:50:47.067Z,11
2016-10-21T00:51:47.383Z,10.99
2016-10-21T00:52:46.770Z,11.02
2016-10-21T00:53:47.557Z,11.05
2016-10-21T00:54:47.247Z,11.14
2016-10-21T00:55:47.478Z,11.04
2016-10-21T00:56:46.849Z,11.07
2016-10-21T00:57:46.861Z,10.94
2016-10-21T00:58:47.257Z,11.02
2016-10-21T00:59:47.231Z,10.97
2016-10-21T01:00:47.664Z,10.92
2016-10-21T01:01:47.250Z,10.89
2016-10-21T01:02:46.982Z,10.82
2016-10-21T01:03:47.311Z,10.84
2016-10-21T01:04:47.304Z,10.92
2016-10-21T01:05:47.660Z,10.89
2016-10-21T01:06:47.356Z,10.96
2016-10-21T01:07:47.675Z,10.96
2016-10-21T01:08:47.377Z,10.93
2016-10-21T01:09:47.727Z,10.93
2016-10-21T01:10:47.105Z,10.96
2016-10-21T01:11:47.751Z,10.99
2016-10-21T01:12:47.137Z,10.92
2016-10-21T01:13:47.151Z,10.9
2016-10-21T01:14:47.512Z,10.94
2016-10-21T01:15:47.506Z,10.96
2016-10-21T01:16:47.208Z,10.96
2016-10-21T01:17:47.857Z,10.96
2016-10-21T01:18:47.561Z,10.97
2016-10-21T01:19:47.273Z,10.99
2016-10-21T01:20:47.590Z,10.97
2016-10-21T01:21:47.611Z,10.89
2016-10-21T01:22:47.959Z,10.9
2016-10-21T01:23:47.337Z,10.97
2016-10-21T01:24:47.351Z,10.99
2016-10-21T01:25:47.389Z,10.9
2016-10-21T01:26:47.396Z,10.93
2016-10-21T01:27:47.720Z,10.94
2016-10-21T01:28:47.428Z,10.89
2016-10-21T01:29:47.462Z,10.87
2016-10-21T01:30:47.912Z,10.81
2016-10-21T01:31:47.904Z,10.82
2016-10-21T01:32:47.939Z,10.79
2016-10-21T01:33:47.616Z,10.78
2016-10-21T01:34:47.961Z,10.74
2016-10-21T01:35:48.236Z,10.76
2016-10-21T01:36:47.888Z,10.79
2016-10-21T01:37:47.625Z,10.82
2016-10-21T01:38:47.607Z,10.86
2016-10-21T01:39:47.620Z,10.92
2016-10-21T01:40:48.277Z,10.92
2016-10-21T01:41:47.979Z,10.94
2016-10-21T01:42:47.686Z,10.92
2016-10-21T01:43:48.322Z,10.94
2016-10-21T01:44:48.355Z,11.05
2016-10-21T01:45:48.486Z,10.97
2016-10-21T01:46:47.776Z,11.02
2016-10-21T01:47:47.891Z,11.02
2016-10-21T01:48:48.179Z,10.97
2016-10-21T01:49:48.272Z,10.96
2016-10-21T01:50:48.260Z,10.93
2016-10-21T01:51:48.233Z,10.96
2016-10-21T01:52:48.381Z,10.96
2016-10-21T01:53:48.274Z,10.99
2016-10-21T01:54:48.317Z,11.05
2016-10-21T01:55:48.621Z,10.99
2016-10-21T01:56:48.041Z,10.89
2016-10-21T01:57:48.267Z,10.92
2016-10-21T01:58:47.969Z,10.96
2016-10-21T01:59:48.468Z,10.92
2016-10-21T02:00:48.720Z,11.08
2016-10-21T02:01:48.377Z,10.92
2016-10-21T02:02:48.396Z,10.96
2016-10-21T02:03:48.383Z,10.87
2016-10-21T02:04:48.392Z,10.87
2016-10-21T02:05:48.411Z,10.82
2016-10-21T02:06:48.748Z,10.87
2016-10-21T02:07:48.448Z,11.02
2016-10-21T02:08:48.643Z,10.94
2016-10-21T02:09:48.808Z,10.92
2016-10-21T02:10:48.816Z,10.93
2016-10-21T02:11:48.832Z,10.92
2016-10-21T02:12:48.225Z,10.93
2016-10-21T02:13:48.236Z,10.96
2016-10-21T02:14:48.574Z,10.82
2016-10-21T02:15:48.911Z,10.94
2016-10-21T02:16:48.941Z,10.99
2016-10-21T02:17:48.944Z,10.92
2016-10-21T02:18:48.657Z,10.99
2016-10-21T02:19:48.665Z,10.96
2016-10-21T02:20:48.691Z,10.96
2016-10-21T02:21:48.383Z,10.92
2016-10-21T02:22:49.935Z,10.94
2016-10-21T02:23:48.769Z,10.97
2016-10-21T02:24:49.159Z,10.9
2016-10-21T02:25:48.848Z,10.97
2016-10-21T02:26:49.278Z,10.99
2016-10-21T02:27:49.325Z,11.08
2016-10-21T02:28:48.847Z,11
2016-10-21T02:29:49.157Z,11.15
2016-10-21T02:30:49.175Z,11.07
2016-10-21T02:31:48.563Z,11.08
2016-10-21T02:32:49.218Z,11.07
2016-10-21T02:33:48.597Z,11.1
2016-10-21T02:34:48.933Z,11.07
2016-10-21T02:35:48.954Z,11.05
2016-10-21T02:36:49.057Z,11.08
2016-10-21T02:37:48.672Z,11.08
2016-10-21T02:38:48.691Z,11.12
2016-10-21T02:39:49.036Z,11.12
2016-10-21T02:40:49.051Z,11.08
2016-10-21T02:41:49.380Z,11.12
2016-10-21T02:42:49.079Z,11.18
2016-10-21T02:43:49.105Z,11.25
2016-10-21T02:44:48.797Z,11.26
2016-10-21T02:45:50.361Z,11.26
2016-10-21T02:46:50.494Z,11.27
2016-10-21T02:47:50.959Z,11.25
2016-10-21T02:48:49.262Z,11.27
2016-10-21T02:49:49.562Z,11.22
2016-10-21T02:50:49.293Z,11.25
2016-10-21T02:51:49.392Z,11.3
2016-10-21T02:52:48.976Z,11.33
2016-10-21T02:53:49.297Z,11.23
2016-10-21T02:54:49.343Z,11.14
2016-10-21T02:55:49.313Z,11.07
2016-10-21T02:56:49.020Z,11.08
2016-10-21T02:57:49.386Z,11.07
2016-10-21T02:58:49.133Z,11.04
2016-10-21T02:59:49.386Z,11.02
2016-10-21T03:00:49.093Z,10.89
2016-10-21T03:01:49.126Z,10.9
2016-10-21T03:02:49.451Z,10.97
2016-10-21T03:03:49.466Z,10.9
2016-10-21T03:04:49.541Z,10.93
2016-10-21T03:05:49.809Z,10.82
2016-10-21T03:06:49.200Z,10.74
2016-10-21T03:07:49.849Z,10.67
2016-10-21T03:08:49.550Z,10.49
2016-10-21T03:09:49.881Z,10.53
2016-10-21T03:10:49.514Z,10.49
2016-10-21T03:11:49.726Z,10.46
2016-10-21T03:12:49.443Z,10.51
2016-10-21T03:13:49.641Z,10.53
2016-10-21T03:14:49.660Z,10.54
2016-10-21T03:15:49.680Z,10.61
2016-10-21T03:16:49.378Z,10.68
2016-10-21T03:17:49.734Z,10.67
2016-10-21T03:18:49.746Z,10.61
2016-10-21T03:19:49.745Z,10.54
2016-10-21T03:20:49.771Z,10.42
2016-10-21T03:21:49.945Z,10.54
2016-10-21T03:22:49.812Z,10.53
2016-10-21T03:23:50.141Z,10.34
2016-10-21T03:24:49.840Z,10.4
2016-10-21T03:25:49.856Z,10.37
2016-10-21T03:26:49.998Z,10.25
2016-10-21T03:27:50.020Z,10.13
2016-10-21T03:28:49.589Z,10.04
2016-10-21T03:29:50.237Z,10.04
2016-10-21T03:30:49.627Z,9.92
2016-10-21T03:31:49.644Z,9.84
2016-10-21T03:32:49.658Z,9.86
2016-10-21T03:33:49.992Z,9.86
2016-10-21T03:34:50.017Z,9.76
2016-10-21T03:35:50.342Z,9.8
2016-10-21T03:36:50.360Z,9.8
2016-10-21T03:37:49.748Z,9.86
2016-10-21T03:38:50.083Z,9.86
2016-10-21T03:39:49.819Z,9.83
2016-10-21T03:40:49.840Z,9.86
2016-10-21T03:41:50.452Z,9.89
2016-10-21T03:42:50.150Z,9.87
2016-10-21T03:43:50.171Z,9.86
2016-10-21T03:44:50.187Z,9.89
2016-10-21T03:45:50.204Z,10.04
2016-10-21T03:46:49.914Z,9.97
2016-10-21T03:47:49.929Z,10.05
2016-10-21T03:48:50.255Z,9.95
2016-10-21T03:49:49.960Z,9.95
2016-10-21T03:50:49.975Z,9.92
2016-10-21T03:51:50.625Z,9.94
2016-10-21T03:52:50.013Z,9.97
2016-10-21T03:53:50.689Z,9.95
2016-10-21T03:54:50.046Z,10.05
2016-10-21T03:55:50.374Z,10.04
2016-10-21T03:56:50.414Z,10.02
2016-10-21T03:57:50.451Z,10.07
2016-10-21T03:58:50.447Z,10.04
2016-10-21T03:59:50.139Z,10.09
2016-10-21T04:00:50.506Z,10.13
2016-10-21T04:01:50.189Z,10.17
2016-10-21T04:02:50.819Z,10.15
2016-10-21T04:03:50.241Z,10.2
2016-10-21T04:04:50.533Z,10.19
2016-10-21T04:05:50.243Z,10.22
2016-10-21T04:06:50.251Z,10.23
2016-10-21T04:07:50.584Z,10.25
2016-10-21T04:08:50.598Z,10.23
2016-10-21T04:09:50.323Z,10.1
2016-10-21T04:10:50.640Z,10.17
2016-10-21T04:11:50.653Z,10.16
2016-10-21T04:12:50.360Z,10.23
2016-10-21T04:13:51.006Z,10.23
2016-10-21T04:14:50.397Z,10.25
2016-10-21T04:15:51.048Z,10.3
2016-10-21T04:16:50.451Z,10.28
2016-10-21T04:17:50.759Z,10.31
2016-10-21T04:18:50.776Z,10.2
2016-10-21T04:19:50.794Z,10.34
2016-10-21T04:20:51.135Z,10.4
2016-10-21T04:21:50.533Z,10.44
2016-10-21T04:22:50.538Z,10.48
2016-10-21T04:23:50.565Z,10.48
2016-10-21T04:24:50.889Z,10.49
2016-10-21T04:25:50.908Z,10.49
2016-10-21T04:26:51.243Z,10.57
2016-10-21T04:27:51.254Z,10.53
2016-10-21T04:28:50.639Z,10.49
2016-10-21T04:29:50.656Z,10.64
2016-10-21T04:30:50.991Z,10.63
2016-10-21T04:31:51.324Z,10.61
2016-10-21T04:32:51.047Z,10.69
2016-10-21T04:33:51.190Z,10.69
2016-10-21T04:34:51.063Z,10.75
2016-10-21T04:35:51.085Z,10.75
2016-10-21T04:36:50.779Z,10.84
2016-10-21T04:37:51.125Z,10.74
2016-10-21T04:38:51.128Z,10.76
2016-10-21T04:39:50.843Z,10.84
2016-10-21T04:40:50.850Z,10.68
2016-10-21T04:41:51.189Z,10.59
2016-10-21T04:42:50.886Z,10.64
2016-10-21T04:43:51.533Z,10.51
2016-10-21T04:44:50.918Z,10.51
2016-10-21T04:45:51.253Z,10.64
2016-10-21T04:46:51.273Z,10.6
2016-10-21T04:47:51.288Z,10.61
2016-10-21T04:48:51.307Z,10.53
2016-10-21T04:49:51.344Z,10.41
2016-10-21T04:50:51.354Z,10.57
2016-10-21T04:51:51.464Z,10.63
2016-10-21T04:52:51.528Z,10.49
2016-10-21T04:53:51.537Z,10.67
2016-10-21T04:54:51.518Z,10.68
2016-10-21T04:55:51.870Z,10.67
2016-10-21T04:56:51.838Z,10.51
2016-10-21T04:57:51.700Z,10.61
2016-10-21T04:58:51.312Z,10.67
2016-10-21T04:59:51.294Z,10.59
2016-10-21T05:00:51.539Z,10.67
2016-10-21T05:01:51.229Z,10.64
2016-10-21T05:02:51.240Z,10.64
2016-10-21T05:03:51.570Z,10.64
2016-10-21T05:04:51.585Z,10.63
2016-10-21T05:05:53.277Z,10.69
2016-10-21T05:06:51.662Z,10.75
2016-10-21T05:07:51.663Z,10.75
2016-10-21T05:08:51.690Z,10.71
2016-10-21T05:09:51.977Z,10.75
2016-10-21T05:10:51.395Z,10.75
2016-10-21T05:11:52.039Z,10.75
2016-10-21T05:12:51.731Z,10.76
2016-10-21T05:13:51.433Z,10.71
2016-10-21T05:14:52.083Z,10.68
2016-10-21T05:15:52.112Z,10.72
2016-10-21T05:16:51.823Z,10.72
2016-10-21T05:17:52.168Z,10.72
2016-10-21T05:18:51.524Z,10.74
2016-10-21T05:19:51.542Z,10.81
2016-10-21T05:20:51.875Z,10.74
2016-10-21T05:21:51.573Z,10.78
2016-10-21T05:22:52.234Z,10.79
2016-10-21T05:23:52.243Z,10.81
2016-10-21T05:24:51.629Z,10.89
2016-10-21T05:25:51.964Z,10.87
2016-10-21T05:26:51.664Z,10.86
2016-10-21T05:27:51.684Z,10.87
2016-10-21T05:28:52.331Z,10.89
2016-10-21T05:29:51.718Z,10.82
2016-10-21T05:30:52.049Z,10.86
2016-10-21T05:31:52.068Z,10.94
2016-10-21T05:32:52.089Z,10.86
2016-10-21T05:33:51.801Z,10.96
2016-10-21T05:34:52.437Z,10.97
2016-10-21T05:35:51.821Z,10.99
2016-10-21T05:36:52.159Z,10.96
2016-10-21T05:37:52.272Z,10.93
2016-10-21T05:38:51.882Z,10.96
2016-10-21T05:39:52.530Z,11
2016-10-21T05:40:52.245Z,10.96
2016-10-21T05:41:52.590Z,10.94
2016-10-21T05:42:52.581Z,10.99
2016-10-21T05:43:51.970Z,10.99
2016-10-21T05:44:52.627Z,11.02
2016-10-21T05:45:52.322Z,11.04
2016-10-21T05:46:52.344Z,11.07
2016-10-21T05:47:52.670Z,11.05
2016-10-21T05:48:52.372Z,10.97
2016-10-21T05:49:52.350Z,10.99
2016-10-21T05:50:52.126Z,11.05
2016-10-21T05:51:52.739Z,11
2016-10-21T05:52:52.130Z,10.97
2016-10-21T05:53:52.154Z,10.92
2016-10-21T05:54:52.166Z,10.96
2016-10-21T05:55:52.501Z,10.99
2016-10-21T05:56:52.514Z,10.96
2016-10-21T05:57:52.544Z,10.93
2016-10-21T05:58:52.551Z,10.92
2016-10-21T05:59:52.258Z,10.96
2016-10-21T06:00:52.617Z,10.97
2016-10-21T06:01:52.609Z,10.94
2016-10-21T06:02:52.305Z,10.93
2016-10-21T06:03:52.641Z,10.96
2016-10-21T06:04:52.972Z,10.94
2016-10-21T06:05:52.672Z,10.96
2016-10-21T06:06:53.009Z,10.84
2016-10-21T06:07:52.408Z,10.81
2016-10-21T06:08:52.734Z,10.9
2016-10-21T06:09:52.750Z,10.9
2016-10-21T06:10:52.449Z,10.96
2016-10-21T06:11:52.782Z,10.94
2016-10-21T06:12:52.800Z,10.9
2016-10-21T06:13:53.134Z,10.94
2016-10-21T06:14:53.149Z,10.92
2016-10-21T06:15:52.851Z,10.9
2016-10-21T06:16:52.576Z,10.96
2016-10-21T06:17:53.203Z,10.97
2016-10-21T06:18:52.642Z,10.96
2016-10-21T06:19:52.921Z,10.92
2016-10-21T06:20:52.622Z,10.94
2016-10-21T06:21:52.959Z,10.9
2016-10-21T06:22:52.663Z,10.9
2016-10-21T06:23:53.314Z,10.89
2016-10-21T06:24:52.708Z,10.93
2016-10-21T06:25:53.347Z,10.93
2016-10-21T06:26:53.367Z,10.93
2016-10-21T06:27:53.071Z,10.93
2016-10-21T06:28:53.403Z,10.94
2016-10-21T06:29:53.103Z,10.99
2016-10-21T06:30:53.123Z,11
2016-10-21T06:31:52.821Z,11.08
2016-10-21T06:32:52.865Z,10.94
2016-10-21T06:33:53.179Z,10.93
2016-10-21T06:34:52.873Z,11.02
2016-10-21T06:35:52.894Z,10.94
2016-10-21T06:36:52.915Z,10.9
2016-10-21T06:37:53.562Z,10.96
2016-10-21T06:38:53.262Z,10.99
2016-10-21T06:39:53.596Z,10.96
2016-10-21T06:40:52.981Z,10.96
2016-10-21T06:41:52.998Z,10.99
2016-10-21T06:42:53.018Z,10.97
2016-10-21T06:43:53.346Z,11.04
2016-10-21T06:44:53.049Z,11.11
2016-10-21T06:45:53.070Z,10.99
2016-10-21T06:46:53.405Z,11.1
2016-10-21T06:47:53.427Z,11
2016-10-21T06:48:53.447Z,10.99
2016-10-21T06:49:53.775Z,11.11
2016-10-21T06:50:53.475Z,10.99
2016-10-21T06:51:53.814Z,11.05
2016-10-21T06:52:53.513Z,11.07
2016-10-21T06:53:53.533Z,11.07
2016-10-21T06:54:53.230Z,11.05
2016-10-21T06:55:53.245Z,11.05
2016-10-21T06:56:53.266Z,11.08
2016-10-21T06:57:53.606Z,11.11
2016-10-21T06:58:53.614Z,10.99
2016-10-21T06:59:53.640Z,10.97
2016-10-21T07:00:54.101Z,10.96
2016-10-21T07:01:53.353Z,11.05
2016-10-21T07:02:53.378Z,11.11
2016-10-21T07:03:54.035Z,11
2016-10-21T07:04:53.729Z,10.99
2016-10-21T07:05:53.431Z,10.99
2016-10-21T07:06:53.761Z,11.11
2016-10-21T07:07:54.101Z,10.97
2016-10-21T07:08:54.111Z,10.97
2016-10-21T07:09:53.818Z,10.9
2016-10-21T07:10:53.512Z,10.93
2016-10-21T07:11:53.890Z,10.96
2016-10-21T07:12:53.558Z,10.9
2016-10-21T07:13:54.570Z,11.05
2016-10-21T07:14:53.612Z,10.99
2016-10-21T07:15:53.614Z,10.94
2016-10-21T07:16:53.621Z,10.97
2016-10-21T07:17:53.964Z,10.96
2016-10-21T07:18:54.433Z,10.94
2016-10-21T07:19:54.022Z,10.99
2016-10-21T07:20:54.012Z,10.89
2016-10-21T07:21:53.785Z,10.89
2016-10-21T07:22:54.040Z,10.9
2016-10-21T07:23:54.127Z,10.84
2016-10-21T07:24:53.769Z,10.89
2016-10-21T07:25:53.781Z,10.87
2016-10-21T07:26:54.133Z,10.87
2016-10-21T07:27:54.135Z,10.84
2016-10-21T07:28:54.462Z,10.87
2016-10-21T07:29:54.193Z,10.92
2016-10-21T07:30:54.186Z,10.87
2016-10-21T07:31:54.204Z,10.78
2016-10-21T07:32:53.905Z,10.9
2016-10-21T07:33:54.248Z,10.84
2016-10-21T07:34:54.255Z,10.68
2016-10-21T07:35:53.998Z,10.72
2016-10-21T07:36:54.294Z,10.74
2016-10-21T07:37:53.992Z,10.81
2016-10-21T07:38:54.329Z,10.74
2016-10-21T07:39:54.050Z,10.69
2016-10-21T07:40:54.368Z,10.61
2016-10-21T07:41:54.379Z,10.67
2016-10-21T07:42:54.713Z,10.63
2016-10-21T07:43:54.419Z,10.59
2016-10-21T07:44:54.442Z,10.6
2016-10-21T07:45:54.786Z,10.61
2016-10-21T07:46:54.179Z,10.6
2016-10-21T07:47:54.505Z,10.68
2016-10-21T07:48:54.200Z,10.57
2016-10-21T07:49:54.865Z,10.75
2016-10-21T07:50:54.866Z,10.81
2016-10-21T07:51:54.568Z,10.79
2016-10-21T07:52:54.612Z,10.75
2016-10-21T07:53:54.611Z,10.84
2016-10-21T07:54:54.332Z,10.74
2016-10-21T07:55:54.968Z,10.61
2016-10-21T07:56:54.651Z,10.67
2016-10-21T07:57:54.987Z,10.64
2016-10-21T07:58:54.693Z,10.63
2016-10-21T07:59:54.389Z,10.64
2016-10-21T08:00:55.055Z,10.61
2016-10-21T08:01:54.794Z,10.54
2016-10-21T08:02:54.790Z,10.54
2016-10-21T08:03:54.784Z,10.54
2016-10-21T08:04:54.482Z,10.53
2016-10-21T08:05:54.555Z,10.49
2016-10-21T08:06:54.835Z,10.51
2016-10-21T08:07:55.164Z,10.49
2016-10-21T08:08:54.544Z,10.41
2016-10-21T08:09:54.565Z,10.46
2016-10-21T08:10:54.908Z,10.41
2016-10-21T08:11:54.915Z,10.46
2016-10-21T08:12:54.619Z,10.49
2016-10-21T08:13:54.966Z,10.51
2016-10-21T08:14:54.973Z,10.51
2016-10-21T08:15:54.984Z,10.49
2016-10-21T08:16:54.689Z,10.53
2016-10-21T08:17:55.033Z,10.49
2016-10-21T08:18:55.351Z,10.44
2016-10-21T08:19:55.366Z,10.56
2016-10-21T08:20:54.753Z,10.49
2016-10-21T08:21:55.103Z,10.61
2016-10-21T08:22:55.416Z,10.71
2016-10-21T08:23:55.121Z,10.74
2016-10-21T08:24:54.826Z,10.84
2016-10-21T08:25:55.508Z,10.92
2016-10-21T08:26:55.195Z,10.93
2016-10-21T08:27:55.505Z,10.92
2016-10-21T08:28:55.211Z,10.82
2016-10-21T08:29:55.232Z,10.97
2016-10-21T08:30:54.950Z,10.93
2016-10-21T08:31:55.578Z,10.96
2016-10-21T08:32:55.277Z,11
2016-10-21T08:33:55.615Z,10.9
2016-10-21T08:34:55.628Z,11
2016-10-21T08:35:55.334Z,10.96
2016-10-21T08:36:55.349Z,11.1
2016-10-21T08:37:55.384Z,10.92
2016-10-21T08:38:55.078Z,10.99
2016-10-21T08:39:55.089Z,10.99
2016-10-21T08:40:55.426Z,10.99
2016-10-21T08:41:55.125Z,10.87
2016-10-21T08:42:55.772Z,10.93
2016-10-21T08:43:55.472Z,10.96
2016-10-21T08:44:55.491Z,10.96
2016-10-21T08:45:55.505Z,10.86
2016-10-21T08:46:55.526Z,10.94
2016-10-21T08:47:55.547Z,10.96
2016-10-21T08:48:55.880Z,10.96
2016-10-21T08:49:55.903Z,11.1
2016-10-21T08:50:55.911Z,11.08
2016-10-21T08:51:55.302Z,11.05
2016-10-21T08:52:55.631Z,11.08
2016-10-21T08:53:55.652Z,11.1
2016-10-21T08:54:55.355Z,10.96
2016-10-21T08:55:55.689Z,10.94
2016-10-21T08:56:55.701Z,10.94
2016-10-21T08:57:55.817Z,10.97
2016-10-21T08:58:55.894Z,11.05
2016-10-21T08:59:55.572Z,10.97
2016-10-21T09:00:56.305Z,10.92
2016-10-21T09:01:55.569Z,11
2016-10-21T09:02:55.498Z,11.07
2016-10-21T09:03:55.832Z,11.1
2016-10-21T09:04:56.168Z,11.08
2016-10-21T09:05:55.553Z,11.07
2016-10-21T09:06:56.206Z,11.04
2016-10-21T09:07:55.901Z,11.05
2016-10-21T09:08:55.933Z,11.05
2016-10-21T09:09:55.934Z,11.05
2016-10-21T09:10:55.975Z,11.11
2016-10-21T09:11:55.655Z,11.08
2016-10-21T09:12:56.307Z,11.02
2016-10-21T09:13:56.008Z,11.05
2016-10-21T09:14:55.840Z,11.05
2016-10-21T09:15:56.054Z,11.11
2016-10-21T09:16:56.068Z,11.14
2016-10-21T09:17:55.767Z,11.1
2016-10-21T09:18:56.426Z,11.19
2016-10-21T09:19:56.114Z,11.1
2016-10-21T09:20:56.136Z,11.19
2016-10-21T09:21:56.160Z,11.19
2016-10-21T09:22:56.489Z,11.18
2016-10-21T09:23:56.507Z,11.25
2016-10-21T09:24:56.204Z,11.19
2016-10-21T09:25:56.226Z,11.22
2016-10-21T09:26:56.490Z,11.25
2016-10-21T09:27:55.943Z,11.22
2016-10-21T09:28:55.965Z,11.26
2016-10-21T09:29:56.298Z,11.29
2016-10-21T09:30:56.323Z,11.27
2016-10-21T09:31:56.330Z,11.22
2016-10-21T09:32:56.340Z,11.3
2016-10-21T09:33:56.383Z,11.23
2016-10-21T09:34:56.447Z,11.18
2016-10-21T09:35:56.146Z,11.3
2016-10-21T09:36:56.420Z,11.25
2016-10-21T09:37:56.762Z,11.25
2016-10-21T09:38:56.143Z,11.23
2016-10-21T09:39:56.791Z,11.23
2016-10-21T09:40:56.172Z,11.23
2016-10-21T09:41:56.198Z,11.25
2016-10-21T09:42:56.845Z,11.22
2016-10-21T09:43:56.628Z,11.22
2016-10-21T09:44:56.575Z,11.32
2016-10-21T09:45:56.266Z,11.29
2016-10-21T09:46:56.932Z,11.19
2016-10-21T09:47:57.019Z,11.26
2016-10-21T09:48:56.349Z,11.19
2016-10-21T09:49:56.785Z,11.27
2016-10-21T09:50:56.683Z,11.22
2016-10-21T09:51:56.729Z,11.26
2016-10-21T09:52:56.420Z,11.22
2016-10-21T09:53:57.065Z,11.25
2016-10-21T09:54:57.071Z,11.18
2016-10-21T09:55:56.887Z,11.29
2016-10-21T09:56:57.192Z,11.22
2016-10-21T09:57:56.831Z,11.22
2016-10-21T09:58:56.879Z,11.23
2016-10-21T09:59:57.198Z,11.25
2016-10-21T10:00:56.854Z,11.17
2016-10-21T10:01:56.882Z,11.12
2016-10-21T10:02:57.403Z,11.3
2016-10-21T10:03:56.902Z,11.15
2016-10-21T10:04:56.924Z,11.19
2016-10-21T10:05:56.702Z,11.26
2016-10-21T10:06:57.269Z,11.26
2016-10-21T10:07:56.671Z,11.27
2016-10-21T10:08:56.991Z,11.29
2016-10-21T10:09:57.014Z,11.22
2016-10-21T10:10:57.085Z,11.18
2016-10-21T10:11:57.050Z,11.14
2016-10-21T10:12:57.195Z,11.18
2016-10-21T10:13:56.768Z,11.11
2016-10-21T10:14:57.104Z,11.11
2016-10-21T10:15:57.119Z,11.14
2016-10-21T10:16:57.147Z,11.23
2016-10-21T10:17:57.473Z,11.19
2016-10-21T10:18:57.231Z,11.22
2016-10-21T10:19:57.010Z,11.19
2016-10-21T10:20:57.359Z,11.22
2016-10-21T10:21:57.333Z,11.23
2016-10-21T10:22:57.555Z,11.12
2016-10-21T10:23:57.643Z,11.22
2016-10-21T10:24:57.272Z,11.17
2016-10-21T10:25:57.641Z,11.29
2016-10-21T10:26:57.634Z,11.19
2016-10-21T10:27:57.653Z,11.26
2016-10-21T10:28:57.358Z,11.27
2016-10-21T10:29:57.371Z,11.22
2016-10-21T10:30:57.390Z,11.33
2016-10-21T10:31:57.085Z,11.33
2016-10-21T10:32:58.196Z,11.35
2016-10-21T10:33:57.153Z,11.33
2016-10-21T10:34:57.459Z,11.32
2016-10-21T10:35:57.580Z,11.36
2016-10-21T10:36:57.232Z,11.37
2016-10-21T10:37:57.525Z,11.36
2016-10-21T10:38:57.542Z,11.44
2016-10-21T10:39:58.045Z,11.48
2016-10-21T10:40:57.245Z,11.51
2016-10-21T10:41:57.582Z,11.48
2016-10-21T10:42:57.789Z,11.51
2016-10-21T10:43:57.764Z,11.43
2016-10-21T10:44:57.635Z,11.55
2016-10-21T10:45:57.755Z,11.52
2016-10-21T10:46:57.999Z,11.55
2016-10-21T10:47:57.694Z,11.62
2016-10-21T10:48:57.712Z,11.52
2016-10-21T10:49:57.429Z,11.52
2016-10-21T10:50:57.750Z,11.57
2016-10-21T10:51:57.759Z,11.57
2016-10-21T10:52:57.778Z,11.55
2016-10-21T10:53:57.800Z,11.59
2016-10-21T10:54:57.506Z,11.57
2016-10-21T10:55:57.532Z,11.45
2016-10-21T10:56:57.850Z,11.48
2016-10-21T10:57:57.552Z,11.52
2016-10-21T10:58:57.904Z,11.35
2016-10-21T10:59:57.913Z,11.44
2016-10-21T11:00:58.843Z,11.41
2016-10-21T11:01:58.283Z,11.4
2016-10-21T11:02:58.012Z,11.41
2016-10-21T11:03:58.296Z,11.43
2016-10-21T11:04:57.677Z,11.41
2016-10-21T11:05:58.033Z,11.37
2016-10-21T11:06:58.029Z,11.41
2016-10-21T11:07:57.734Z,11.44
2016-10-21T11:08:57.748Z,11.4
2016-10-21T11:09:57.768Z,11.41
2016-10-21T11:10:58.421Z,11.43
2016-10-21T11:11:58.119Z,11.44
2016-10-21T11:12:58.137Z,11.47
2016-10-21T11:13:58.158Z,11.57
2016-10-21T11:14:58.177Z,11.52
2016-10-21T11:15:58.196Z,11.57
2016-10-21T11:16:58.213Z,11.54
2016-10-21T11:17:57.955Z,11.54
2016-10-21T11:18:58.993Z,11.57
2016-10-21T11:19:58.582Z,11.55
2016-10-21T11:20:58.597Z,11.48
2016-10-21T11:21:58.003Z,11.33
2016-10-21T11:22:58.013Z,11.37
2016-10-21T11:23:58.339Z,11.35
2016-10-21T11:24:58.360Z,11.52
2016-10-21T11:25:58.378Z,11.33
2016-10-21T11:26:58.709Z,11.3
2016-10-21T11:27:58.731Z,11.44
2016-10-21T11:28:58.749Z,11.37
2016-10-21T11:29:58.766Z,11.35
2016-10-21T11:30:58.472Z,11.35
2016-10-21T11:31:58.486Z,11.27
2016-10-21T11:32:58.507Z,11.22
2016-10-21T11:33:58.836Z,11.23
2016-10-21T11:34:58.538Z,11.15
2016-10-21T11:35:58.561Z,11.18
2016-10-21T11:36:58.601Z,11.26
2016-10-21T11:37:58.906Z,11.35
2016-10-21T11:38:58.614Z,11.3
2016-10-21T11:39:58.317Z,11.23
2016-10-21T11:40:58.652Z,11.22
2016-10-21T11:41:59.024Z,11.3
2016-10-21T11:42:58.684Z,11.23
2016-10-21T11:43:58.387Z,11.22
2016-10-21T11:44:58.409Z,11.22
2016-10-21T11:45:58.742Z,11.27
2016-10-21T11:46:59.075Z,11.23
2016-10-21T11:47:58.883Z,11.3
2016-10-21T11:48:58.481Z,11.37
2016-10-21T11:49:59.137Z,11.37
2016-10-21T11:50:58.520Z,11.35
2016-10-21T11:51:58.535Z,11.41
2016-10-21T11:52:58.870Z,11.36
2016-10-21T11:53:59.214Z,11.41
2016-10-21T11:54:59.224Z,11.48
2016-10-21T11:55:58.615Z,11.37
2016-10-21T11:56:58.940Z,11.37
2016-10-21T11:57:58.971Z,11.44
2016-10-21T11:58:58.977Z,11.4
2016-10-21T11:59:58.995Z,11.37
2016-10-21T12:00:59.014Z,11.37
2016-10-21T12:01:58.716Z,11.43
2016-10-21T12:02:59.049Z,11.4
2016-10-21T12:03:59.065Z,11.35
2016-10-21T12:04:59.082Z,11.36
2016-10-21T12:05:59.109Z,11.43
2016-10-21T12:06:59.477Z,11.4
2016-10-21T12:07:59.152Z,11.47
2016-10-21T12:08:59.486Z,11.33
2016-10-21T12:09:58.860Z,11.26
2016-10-21T12:10:59.205Z,11.33
2016-10-21T12:11:58.903Z,11.4
2016-10-21T12:12:59.231Z,11.32
2016-10-21T12:13:58.937Z,11.41
2016-10-21T12:14:58.955Z,11.4
2016-10-21T12:15:59.291Z,11.36
2016-10-21T12:16:59.002Z,11.32
2016-10-21T12:17:59.323Z,11.22
2016-10-21T12:18:59.025Z,11.26
2016-10-21T12:19:59.047Z,11.4
2016-10-21T12:20:59.694Z,11.44
2016-10-21T12:21:59.710Z,11.41
2016-10-21T12:22:59.101Z,11.35
2016-10-21T12:23:59.436Z,11.32
2016-10-21T12:24:59.456Z,11.32
2016-10-21T12:25:59.471Z,11.41
2016-10-21T12:26:59.493Z,11.33
2016-10-21T12:27:59.508Z,11.45
2016-10-21T12:28:59.563Z,11.32
2016-10-21T12:29:59.541Z,11.41
2016-10-21T12:30:59.244Z,11.48
2016-10-21T12:31:59.262Z,11.55
2016-10-21T12:32:59.599Z,11.48
2016-10-21T12:33:59.297Z,11.44
2016-10-21T12:34:59.314Z,11.5
2016-10-21T12:35:59.655Z,11.52
2016-10-21T12:36:59.353Z,11.63
2016-10-21T12:37:59.376Z,11.52
2016-10-21T12:39:00.031Z,11.52
2016-10-21T12:39:59.760Z,11.52
2016-10-21T12:40:59.749Z,11.45
2016-10-21T12:41:59.767Z,11.52
2016-10-21T12:43:14.375Z,11.52
2016-10-21T12:43:59.825Z,11.55
2016-10-21T12:44:59.871Z,11.45
2016-10-21T12:46:00.159Z,11.48
2016-10-21T12:46:59.872Z,11.59
2016-10-21T12:47:59.880Z,11.47
2016-10-21T12:48:59.569Z,11.5
2016-10-21T12:49:59.903Z,11.4
2016-10-21T12:50:59.620Z,11.48
2016-10-21T12:51:59.963Z,11.5
2016-10-21T12:52:59.990Z,11.48
2016-10-21T12:54:00.013Z,11.47
2016-10-21T12:55:00.035Z,11.4
2016-10-21T12:56:00.046Z,11.26
2016-10-21T12:57:00.060Z,11.26